sensor_id;sensor_type;location;lat;lon;timestamp;temperature;humidity
28193;DHT22;15473;50.840;3.396;2022-08-11T19:06:19;24.40;98.80
28193;DHT22;15473;50.840;3.396;2022-08-11T19:09:23;24.10;98.70
28193;DHT22;15473;50.840;3.396;2022-08-11T19:12:31;24.10;99.60
28193;DHT22;15473;50.840;3.396;2022-08-11T19:15:36;24.00;99.50
28193;DHT22;15473;50.840;3.396;2022-08-11T19:18:42;23.90;99.80
28193;DHT22;15473;50.840;3.396;2022-08-11T19:21:49;23.90;99.70
28193;DHT22;15473;50.840;3.396;2022-08-11T19:24:55;23.90;99.50
28193;DHT22;15473;50.840;3.396;2022-08-11T19:28:00;23.80;98.90
28193;DHT22;15473;50.840;3.396;2022-08-11T19:31:07;23.80;99.30
28193;DHT22;15473;50.840;3.396;2022-08-11T19:34:16;23.80;99.60
28193;DHT22;15473;50.840;3.396;2022-08-11T19:37:22;23.70;99.80
28193;DHT22;15473;50.840;3.396;2022-08-11T19:40:28;23.60;99.90
28193;DHT22;15473;50.840;3.396;2022-08-11T19:43:33;23.60;99.90
28193;DHT22;15473;50.840;3.396;2022-08-11T19:46:38;23.60;99.30
28193;DHT22;15473;50.840;3.396;2022-08-11T19:49:44;23.50;99.90
28193;DHT22;15473;50.840;3.396;2022-08-11T19:52:49;23.40;99.90
28193;DHT22;15473;50.840;3.396;2022-08-11T19:55:55;23.40;99.90
28193;DHT22;15473;50.840;3.396;2022-08-11T19:59:00;23.30;99.90
28193;DHT22;15473;50.840;3.396;2022-08-11T20:02:05;23.20;99.90
28193;DHT22;15473;50.840;3.396;2022-08-11T20:05:10;23.10;99.90
28193;DHT22;15473;50.840;3.396;2022-08-11T20:08:17;23.20;99.90
28193;DHT22;15473;50.840;3.396;2022-08-11T20:11:24;23.00;99.90
28193;DHT22;15473;50.840;3.396;2022-08-11T20:14:31;23.00;99.90
28193;DHT22;15473;50.840;3.396;2022-08-11T20:17:38;22.90;99.90
28193;DHT22;15473;50.840;3.396;2022-08-11T20:20:46;22.90;99.90
28193;DHT22;15473;50.840;3.396;2022-08-11T20:23:49;22.80;99.90
28193;DHT22;15473;50.840;3.396;2022-08-11T20:26:55;22.80;99.90
28193;DHT22;15473;50.840;3.396;2022-08-11T20:30:00;22.70;99.90
28193;DHT22;15473;50.840;3.396;2022-08-11T20:33:06;22.80;99.90
28193;DHT22;15473;50.840;3.396;2022-08-11T20:36:12;22.70;99.90
28193;DHT22;15473;50.840;3.396;2022-08-11T20:39:18;22.70;99.90
28193;DHT22;15473;50.840;3.396;2022-08-11T20:42:25;22.70;99.90
28193;DHT22;15473;50.840;3.396;2022-08-11T20:45:30;22.70;99.90
28193;DHT22;15473;50.840;3.396;2022-08-11T20:48:35;22.70;99.90
28193;DHT22;15473;50.840;3.396;2022-08-11T20:51:40;22.60;99.90
28193;DHT22;15473;50.840;3.396;2022-08-11T20:54:45;22.70;99.90
28193;DHT22;15473;50.840;3.396;2022-08-11T20:57:52;22.70;99.90
28193;DHT22;15473;50.840;3.396;2022-08-11T21:00:56;22.70;99.90
28193;DHT22;15473;50.840;3.396;2022-08-11T21:04:02;22.70;99.90
28193;DHT22;15473;50.840;3.396;2022-08-11T21:07:06;22.60;99.90
28193;DHT22;15473;50.840;3.396;2022-08-11T21:10:11;22.50;99.90
28193;DHT22;15473;50.840;3.396;2022-08-11T21:13:16;22.40;99.90
28193;DHT22;15473;50.840;3.396;2022-08-11T21:16:24;22.20;99.90
28193;DHT22;15473;50.840;3.396;2022-08-11T21:19:35;22.10;99.90
28193;DHT22;15473;50.840;3.396;2022-08-11T21:22:46;22.00;99.90
28193;DHT22;15473;50.840;3.396;2022-08-11T21:25:53;22.00;99.90
28193;DHT22;15473;50.840;3.396;2022-08-11T21:28:56;22.00;99.90
28193;DHT22;15473;50.840;3.396;2022-08-11T21:32:00;22.00;99.90
28193;DHT22;15473;50.840;3.396;2022-08-11T21:35:05;21.90;99.90
28193;DHT22;15473;50.840;3.396;2022-08-11T21:38:11;21.80;99.90
28193;DHT22;15473;50.840;3.396;2022-08-11T21:41:16;21.80;99.90
28193;DHT22;15473;50.840;3.396;2022-08-11T21:44:22;21.70;99.90
28193;DHT22;15473;50.840;3.396;2022-08-11T21:47:27;21.70;99.90
28193;DHT22;15473;50.840;3.396;2022-08-11T21:50:33;21.60;99.90
28193;DHT22;15473;50.840;3.396;2022-08-11T21:53:38;21.60;99.90
28193;DHT22;15473;50.840;3.396;2022-08-11T21:56:45;21.60;99.90
28193;DHT22;15473;50.840;3.396;2022-08-11T21:59:56;21.60;99.90
28193;DHT22;15473;50.840;3.396;2022-08-11T22:02:57;21.50;99.90
28193;DHT22;15473;50.840;3.396;2022-08-11T22:06:02;21.50;99.90
28193;DHT22;15473;50.840;3.396;2022-08-11T22:09:07;21.50;99.90
28193;DHT22;15473;50.840;3.396;2022-08-11T22:12:11;21.40;99.90
28193;DHT22;15473;50.840;3.396;2022-08-11T22:15:16;21.30;99.90
28193;DHT22;15473;50.840;3.396;2022-08-11T22:18:22;21.20;99.90
28193;DHT22;15473;50.840;3.396;2022-08-11T22:21:26;21.30;99.90
28193;DHT22;15473;50.840;3.396;2022-08-11T22:24:33;21.20;99.90
28193;DHT22;15473;50.840;3.396;2022-08-11T22:27:38;21.30;99.90
28193;DHT22;15473;50.840;3.396;2022-08-11T22:30:42;21.20;99.90
28193;DHT22;15473;50.840;3.396;2022-08-11T22:33:46;21.10;99.90
28193;DHT22;15473;50.840;3.396;2022-08-11T22:36:50;21.10;99.90
28193;DHT22;15473;50.840;3.396;2022-08-11T22:39:56;21.10;99.90
28193;DHT22;15473;50.840;3.396;2022-08-11T22:43:01;21.00;99.90
28193;DHT22;15473;50.840;3.396;2022-08-11T22:46:06;21.00;99.90
28193;DHT22;15473;50.840;3.396;2022-08-11T22:49:11;21.00;99.90
28193;DHT22;15473;50.840;3.396;2022-08-11T22:52:16;21.00;99.90
28193;DHT22;15473;50.840;3.396;2022-08-11T22:55:22;20.90;99.90
28193;DHT22;15473;50.840;3.396;2022-08-11T22:58:27;20.90;99.90
28193;DHT22;15473;50.840;3.396;2022-08-11T23:01:33;20.80;99.90
28193;DHT22;15473;50.840;3.396;2022-08-11T23:04:38;20.80;99.90
28193;DHT22;15473;50.840;3.396;2022-08-11T23:07:44;20.80;99.90
28193;DHT22;15473;50.840;3.396;2022-08-11T23:10:49;20.80;99.90
28193;DHT22;15473;50.840;3.396;2022-08-11T23:13:53;20.80;99.90
28193;DHT22;15473;50.840;3.396;2022-08-11T23:16:58;20.70;99.90
28193;DHT22;15473;50.840;3.396;2022-08-11T23:20:03;20.70;99.90
28193;DHT22;15473;50.840;3.396;2022-08-11T23:23:07;20.60;99.90
28193;DHT22;15473;50.840;3.396;2022-08-11T23:26:12;20.60;99.90
28193;DHT22;15473;50.840;3.396;2022-08-11T23:29:17;20.40;99.90
28193;DHT22;15473;50.840;3.396;2022-08-11T23:32:24;20.30;99.90
28193;DHT22;15473;50.840;3.396;2022-08-11T23:35:32;20.30;99.90
28193;DHT22;15473;50.840;3.396;2022-08-11T23:38:37;20.20;99.90
28193;DHT22;15473;50.840;3.396;2022-08-11T23:41:43;20.30;99.90
28193;DHT22;15473;50.840;3.396;2022-08-11T23:44:48;20.30;99.90
28193;DHT22;15473;50.840;3.396;2022-08-11T23:47:52;20.20;99.90
28193;DHT22;15473;50.840;3.396;2022-08-11T23:50:58;20.10;99.90
28193;DHT22;15473;50.840;3.396;2022-08-11T23:54:03;20.20;99.90
28193;DHT22;15473;50.840;3.396;2022-08-11T23:57:07;20.10;99.90
